createdAt,value
2018-12-13T00:01:05.958Z,10.63
2018-12-13T00:03:34.178Z,10.00
2018-12-13T00:06:02.372Z,8.83
2018-12-13T00:08:30.601Z,10.30
2018-12-13T00:10:58.835Z,7.03
2018-12-13T00:13:27.073Z,7.87
2018-12-13T00:15:55.342Z,11.00
2018-12-13T00:18:23.569Z,7.47
2018-12-13T00:20:51.894Z,7.03
2018-12-13T00:23:20.128Z,7.77
2018-12-13T00:25:48.396Z,6.90
2018-12-13T00:28:16.578Z,6.47
2018-12-13T00:30:44.841Z,7.77
2018-12-13T00:33:13.085Z,5.57
2018-12-13T00:35:41.283Z,7.10
2018-12-13T00:38:09.502Z,5.77
2018-12-13T00:40:37.781Z,7.33
2018-12-13T00:43:05.936Z,7.23
2018-12-13T00:45:34.141Z,8.80
2018-12-13T00:48:02.410Z,7.90
2018-12-13T00:50:30.637Z,8.67
2018-12-13T00:52:58.858Z,9.00
2018-12-13T00:55:27.050Z,14.27
2018-12-13T00:57:55.293Z,7.90
2018-12-13T01:00:23.581Z,7.27
2018-12-13T01:02:51.796Z,7.37
2018-12-13T01:05:20.101Z,9.30
2018-12-13T01:07:48.299Z,7.93
2018-12-13T01:10:16.450Z,9.00
2018-12-13T01:12:44.809Z,8.40
2018-12-13T01:15:13.154Z,8.97
2018-12-13T01:17:41.346Z,8.87
2018-12-13T01:20:09.587Z,11.73
2018-12-13T01:22:37.892Z,8.87
2018-12-13T01:25:06.281Z,10.57
2018-12-13T01:27:34.477Z,11.40
2018-12-13T01:30:02.833Z,10.30
2018-12-13T01:32:31.178Z,9.23
2018-12-13T01:34:59.384Z,8.73
2018-12-13T01:37:27.546Z,9.43
2018-12-13T01:39:55.786Z,8.50
2018-12-13T01:42:23.949Z,9.03
2018-12-13T01:44:52.287Z,10.97
2018-12-13T01:47:20.586Z,9.73
2018-12-13T01:49:48.746Z,6.77
2018-12-13T01:52:16.922Z,7.60
2018-12-13T01:54:45.152Z,10.67
2018-12-13T01:57:13.468Z,9.60
2018-12-13T01:59:41.653Z,8.83
2018-12-13T02:02:09.842Z,11.13
2018-12-13T02:04:38.019Z,8.43
2018-12-13T02:07:06.165Z,10.90
2018-12-13T02:09:34.364Z,9.87
2018-12-13T02:12:02.576Z,8.03
2018-12-13T02:14:30.791Z,9.37
2018-12-13T02:16:59.007Z,9.57
2018-12-13T02:19:27.201Z,7.83
2018-12-13T02:21:55.469Z,11.43
2018-12-13T02:24:23.648Z,7.80
2018-12-13T02:26:51.805Z,8.57
2018-12-13T02:29:20.032Z,9.73
2018-12-13T02:31:48.301Z,8.90
2018-12-13T02:34:16.629Z,10.83
2018-12-13T02:36:44.834Z,8.60
2018-12-13T02:39:13.016Z,9.23
2018-12-13T02:41:41.161Z,8.27
2018-12-13T02:44:09.410Z,8.70
2018-12-13T02:46:37.614Z,9.77
2018-12-13T02:49:09.201Z,8.10
2018-12-13T02:51:37.528Z,7.47
2018-12-13T02:54:05.749Z,8.00
2018-12-13T02:56:33.990Z,7.23
2018-12-13T02:59:02.145Z,8.77
2018-12-13T03:01:30.464Z,7.80
2018-12-13T03:03:58.702Z,7.87
2018-12-13T03:06:26.965Z,8.87
2018-12-13T03:08:55.174Z,6.63
2018-12-13T03:11:23.377Z,7.23
2018-12-13T03:13:51.687Z,6.23
2018-12-13T03:16:19.928Z,6.93
2018-12-13T03:18:48.162Z,5.40
2018-12-13T03:21:16.429Z,6.30
2018-12-13T03:23:44.681Z,5.73
2018-12-13T03:26:12.937Z,7.70
2018-12-13T03:28:41.167Z,6.07
2018-12-13T03:31:09.406Z,7.40
2018-12-13T03:33:37.846Z,6.63
2018-12-13T03:36:06.169Z,6.97
2018-12-13T03:38:34.369Z,6.93
2018-12-13T03:41:02.891Z,7.07
2018-12-13T03:43:31.223Z,5.90
2018-12-13T03:45:59.395Z,6.00
2018-12-13T03:48:27.728Z,7.77
2018-12-13T03:51:02.590Z,6.87
2018-12-13T03:53:30.789Z,6.87
2018-12-13T03:55:59.033Z,7.23
2018-12-13T03:58:27.249Z,6.73
2018-12-13T04:00:55.490Z,5.00
2018-12-13T04:03:23.762Z,6.40
2018-12-13T04:05:52.130Z,4.97
2018-12-13T04:08:20.276Z,6.10
2018-12-13T04:10:48.454Z,6.13
2018-12-13T04:13:16.676Z,7.80
2018-12-13T04:15:44.824Z,6.07
2018-12-13T04:18:13.041Z,6.27
2018-12-13T04:20:41.214Z,6.40
2018-12-13T04:23:09.449Z,6.87
2018-12-13T04:25:37.649Z,5.80
2018-12-13T04:28:05.860Z,6.43
2018-12-13T04:30:34.081Z,5.23
2018-12-13T04:33:02.275Z,6.37
2018-12-13T04:35:30.589Z,4.73
2018-12-13T04:37:58.846Z,8.40
2018-12-13T04:40:27.121Z,6.40
2018-12-13T04:42:55.277Z,6.37
2018-12-13T04:45:23.494Z,6.73
2018-12-13T04:47:51.710Z,7.77
2018-12-13T04:50:19.931Z,6.27
2018-12-13T04:52:48.094Z,7.20
2018-12-13T04:55:16.311Z,9.17
2018-12-13T04:57:44.505Z,5.83
2018-12-13T05:00:12.800Z,7.93
2018-12-13T05:02:41.038Z,5.57
2018-12-13T05:05:09.267Z,5.97
2018-12-13T05:07:41.739Z,8.97
2018-12-13T05:10:07.991Z,6.20
2018-12-13T05:12:36.172Z,5.70
2018-12-13T05:15:05.093Z,4.83
2018-12-13T05:17:33.291Z,6.57
2018-12-13T05:20:01.465Z,7.13
2018-12-13T05:22:29.656Z,6.70
2018-12-13T05:24:57.803Z,5.40
2018-12-13T05:27:26.009Z,5.23
2018-12-13T05:29:54.178Z,6.97
2018-12-13T05:32:22.397Z,5.67
2018-12-13T05:34:50.713Z,5.37
2018-12-13T05:37:18.933Z,6.63
2018-12-13T05:39:47.182Z,6.33
2018-12-13T05:42:15.400Z,5.50
2018-12-13T05:44:43.637Z,5.93
2018-12-13T05:47:11.807Z,6.40
2018-12-13T05:49:40.130Z,7.27
2018-12-13T05:52:08.306Z,6.93
2018-12-13T05:54:36.496Z,6.47
2018-12-13T05:57:04.826Z,6.83
2018-12-13T05:59:33.054Z,6.57
2018-12-13T06:02:01.293Z,6.40
2018-12-13T06:04:29.525Z,9.13
2018-12-13T06:06:57.748Z,8.60
2018-12-13T06:09:26.041Z,6.90
2018-12-13T06:11:54.201Z,7.07
2018-12-13T06:14:22.438Z,8.47
2018-12-13T06:16:50.628Z,7.37
2018-12-13T06:19:18.899Z,8.13
2018-12-13T06:21:47.088Z,8.17
2018-12-13T06:24:15.265Z,7.33
2018-12-13T06:26:43.522Z,7.17
2018-12-13T06:29:11.715Z,9.27
2018-12-13T06:31:40.004Z,6.80
2018-12-13T06:34:08.216Z,9.30
2018-12-13T06:36:36.510Z,7.60
2018-12-13T06:39:07.617Z,11.60
2018-12-13T06:41:35.877Z,6.17
2018-12-13T06:44:04.209Z,8.63
2018-12-13T06:46:32.527Z,8.87
2018-12-13T06:49:00.817Z,7.37
2018-12-13T06:51:29.151Z,12.47
2018-12-13T06:53:57.331Z,10.20
2018-12-13T06:56:25.578Z,8.23
2018-12-13T06:58:53.792Z,9.10
2018-12-13T07:01:22.045Z,9.00
2018-12-13T07:03:50.411Z,9.03
2018-12-13T07:06:18.591Z,10.77
2018-12-13T07:08:46.863Z,10.53
2018-12-13T07:11:15.040Z,13.17
2018-12-13T07:13:43.294Z,15.17
2018-12-13T07:16:11.546Z,12.43
2018-12-13T07:18:40.141Z,10.70
2018-12-13T07:21:08.473Z,11.60
2018-12-13T07:23:36.663Z,11.30
2018-12-13T07:26:05.910Z,8.67
2018-12-13T07:28:34.148Z,12.07
2018-12-13T07:31:02.389Z,11.17
2018-12-13T07:33:30.623Z,14.50
2018-12-13T07:35:58.830Z,10.50
2018-12-13T07:38:27.064Z,10.87
2018-12-13T07:40:55.295Z,13.53
2018-12-13T07:43:23.547Z,11.37
2018-12-13T07:45:51.771Z,11.73
2018-12-13T07:48:19.981Z,11.60
2018-12-13T07:50:48.191Z,12.20
2018-12-13T07:53:16.360Z,13.30
2018-12-13T07:55:44.542Z,11.13
2018-12-13T07:58:12.786Z,10.97
2018-12-13T08:00:41.002Z,12.33
2018-12-13T08:03:09.261Z,12.30
2018-12-13T08:05:37.485Z,11.13
2018-12-13T08:08:05.718Z,11.10
2018-12-13T08:10:34.084Z,11.37
2018-12-13T08:13:02.270Z,13.10
2018-12-13T08:15:30.612Z,10.73
2018-12-13T08:17:58.812Z,10.83
2018-12-13T08:20:27.058Z,11.37
2018-12-13T08:22:55.209Z,11.47
2018-12-13T08:25:23.507Z,11.60
2018-12-13T08:27:51.737Z,12.60
2018-12-13T08:30:19.988Z,10.50
2018-12-13T08:32:48.197Z,8.67
2018-12-13T08:35:16.475Z,10.00
2018-12-13T08:37:44.700Z,14.63
2018-12-13T08:40:12.947Z,11.47
2018-12-13T08:42:41.213Z,10.23
2018-12-13T08:45:09.713Z,12.30
2018-12-13T08:47:37.976Z,10.53
2018-12-13T08:50:06.405Z,11.73
2018-12-13T08:52:34.638Z,9.97
2018-12-13T08:55:02.945Z,11.50
2018-12-13T08:57:31.165Z,9.60
2018-12-13T08:59:59.406Z,11.57
2018-12-13T09:02:27.650Z,8.60
2018-12-13T09:04:55.858Z,9.97
2018-12-13T09:07:24.139Z,11.07
2018-12-13T09:09:52.323Z,10.40
2018-12-13T09:12:20.558Z,11.73
2018-12-13T09:14:48.769Z,11.93
2018-12-13T09:17:16.977Z,11.87
2018-12-13T09:19:45.165Z,7.97
2018-12-13T09:22:13.356Z,10.20
2018-12-13T09:24:41.550Z,10.07
2018-12-13T09:27:09.801Z,8.97
2018-12-13T09:29:38.009Z,9.20
2018-12-13T09:32:05.925Z,10.20
2018-12-13T09:34:34.111Z,9.57
2018-12-13T09:37:02.292Z,9.50
2018-12-13T09:39:30.489Z,10.77
2018-12-13T09:41:58.725Z,9.43
2018-12-13T09:44:26.972Z,8.70
2018-12-13T09:46:55.212Z,12.30
2018-12-13T09:49:23.417Z,7.30
2018-12-13T09:51:51.737Z,8.30
2018-12-13T09:54:19.962Z,7.17
2018-12-13T09:56:48.182Z,8.17
2018-12-13T09:59:16.369Z,9.33
2018-12-13T10:01:44.604Z,8.10
2018-12-13T10:04:12.785Z,10.00
2018-12-13T10:06:41.005Z,7.63
2018-12-13T10:09:09.200Z,8.77
2018-12-13T10:11:37.510Z,10.13
2018-12-13T10:14:05.766Z,9.20
2018-12-13T10:16:34.073Z,10.13
2018-12-13T10:19:02.289Z,9.70
2018-12-13T10:21:30.563Z,8.17
2018-12-13T10:23:58.799Z,12.03
2018-12-13T10:26:27.081Z,8.57
2018-12-13T10:28:55.307Z,8.73
2018-12-13T10:31:23.556Z,10.17
2018-12-13T10:33:51.890Z,10.73
2018-12-13T10:36:20.109Z,8.27
2018-12-13T10:38:52.955Z,8.57
2018-12-13T10:41:18.562Z,10.43
2018-12-13T10:43:46.777Z,8.20
2018-12-13T10:46:15.093Z,11.80
2018-12-13T10:48:43.294Z,8.23
2018-12-13T10:51:11.633Z,8.90
2018-12-13T10:53:39.909Z,9.77
2018-12-13T10:56:08.132Z,9.70
2018-12-13T10:58:36.340Z,8.37
2018-12-13T11:01:09.973Z,8.63
2018-12-13T11:03:38.338Z,8.30
2018-12-13T11:06:06.526Z,9.57
2018-12-13T11:08:34.799Z,11.07
2018-12-13T11:11:03.070Z,7.63
2018-12-13T11:13:31.429Z,8.63
2018-12-13T11:15:59.640Z,9.30
2018-12-13T11:18:28.009Z,8.87
2018-12-13T11:20:56.217Z,7.83
2018-12-13T11:23:24.565Z,8.47
2018-12-13T11:25:52.746Z,8.00
2018-12-13T11:28:32.242Z,8.67
2018-12-13T11:31:00.595Z,8.47
2018-12-13T11:33:28.868Z,10.23
2018-12-13T11:35:57.073Z,9.40
2018-12-13T11:38:25.250Z,8.70
2018-12-13T11:40:53.456Z,6.87
2018-12-13T11:43:21.674Z,7.97
2018-12-13T11:45:49.937Z,10.03
2018-12-13T11:48:18.312Z,8.10
2018-12-13T11:50:46.456Z,8.27
2018-12-13T11:53:14.744Z,8.80
2018-12-13T11:55:43.041Z,8.63
2018-12-13T11:58:13.791Z,7.63
2018-12-13T12:00:42.079Z,8.73
2018-12-13T12:03:10.312Z,8.70
2018-12-13T12:05:38.529Z,7.37
2018-12-13T12:08:06.807Z,9.00
2018-12-13T12:10:35.014Z,7.63
2018-12-13T12:13:03.336Z,7.17
2018-12-13T12:15:31.568Z,8.63
2018-12-13T12:17:59.740Z,7.37
2018-12-13T12:20:27.965Z,8.37
2018-12-13T12:22:56.191Z,8.70
2018-12-13T12:25:24.393Z,7.60
2018-12-13T12:27:52.563Z,9.00
2018-12-13T12:30:20.788Z,7.27
2018-12-13T12:32:48.979Z,7.67
2018-12-13T12:35:17.200Z,8.67
2018-12-13T12:37:45.421Z,8.43
2018-12-13T12:40:13.634Z,8.20
2018-12-13T12:42:41.856Z,9.03
2018-12-13T12:45:10.039Z,8.33
2018-12-13T12:47:38.278Z,7.53
2018-12-13T12:50:08.164Z,7.90
2018-12-13T12:52:36.472Z,8.77
2018-12-13T12:55:04.868Z,8.30
2018-12-13T12:57:33.208Z,8.03
2018-12-13T13:00:01.443Z,9.80
2018-12-13T13:02:30.792Z,9.00
2018-12-13T13:04:59.195Z,9.00
2018-12-13T13:07:27.430Z,7.03
2018-12-13T13:09:55.657Z,10.53
2018-12-13T13:12:23.872Z,9.83
2018-12-13T13:14:52.092Z,9.67
2018-12-13T13:17:20.327Z,9.17
2018-12-13T13:19:48.664Z,8.73
2018-12-13T13:22:16.854Z,9.30
2018-12-13T13:24:45.058Z,9.60
2018-12-13T13:27:13.274Z,9.80
2018-12-13T13:29:41.514Z,9.50
2018-12-13T13:32:09.685Z,9.67
2018-12-13T13:34:37.852Z,9.80
2018-12-13T13:37:06.130Z,8.37
2018-12-13T13:39:34.626Z,10.03
2018-12-13T13:42:02.905Z,8.90
2018-12-13T13:44:36.203Z,8.33
2018-12-13T13:47:05.377Z,6.70
2018-12-13T13:49:33.662Z,8.33
2018-12-13T13:52:01.852Z,8.80
2018-12-13T13:54:30.090Z,9.60
2018-12-13T13:56:58.504Z,9.20
2018-12-13T13:59:26.745Z,7.67
2018-12-13T14:01:54.997Z,7.50
2018-12-13T14:04:23.489Z,9.00
2018-12-13T14:06:51.672Z,7.93
2018-12-13T14:09:19.889Z,8.73
2018-12-13T14:11:48.089Z,8.73
2018-12-13T14:14:16.313Z,8.60
2018-12-13T14:16:44.727Z,8.73
2018-12-13T14:19:12.900Z,8.33
2018-12-13T14:21:41.145Z,14.50
2018-12-13T14:24:09.365Z,14.57
2018-12-13T14:26:37.713Z,8.63
2018-12-13T14:29:05.920Z,8.17
2018-12-13T14:31:34.694Z,16.83
2018-12-13T14:34:03.201Z,14.77
2018-12-13T14:36:31.427Z,13.27
2018-12-13T14:38:59.645Z,8.83
2018-12-13T14:41:27.945Z,10.83
2018-12-13T14:43:56.277Z,10.23
2018-12-13T14:46:24.538Z,13.50
2018-12-13T14:48:52.788Z,6.40
2018-12-13T14:51:21.021Z,7.47
2018-12-13T14:53:49.272Z,8.77
2018-12-13T14:56:17.500Z,7.80
2018-12-13T14:58:45.840Z,11.90
2018-12-13T15:01:14.054Z,10.87
2018-12-13T15:03:42.280Z,9.13
2018-12-13T15:06:10.506Z,10.20
2018-12-13T15:08:38.729Z,10.43
2018-12-13T15:11:06.942Z,8.37
2018-12-13T15:13:35.214Z,7.53
2018-12-13T15:16:03.509Z,7.00
2018-12-13T15:18:31.725Z,7.27
2018-12-13T15:21:00.001Z,9.17
2018-12-13T15:23:28.258Z,7.10
2018-12-13T15:25:56.568Z,7.37
2018-12-13T15:28:24.932Z,9.27
2018-12-13T15:30:53.169Z,13.07
2018-12-13T15:33:21.510Z,17.40
2018-12-13T15:35:49.693Z,8.40
2018-12-13T15:38:17.932Z,8.03
2018-12-13T15:40:46.279Z,8.03
2018-12-13T15:43:14.552Z,9.90
2018-12-13T15:45:42.910Z,12.30
2018-12-13T15:48:11.213Z,7.87
2018-12-13T15:50:39.414Z,9.80
2018-12-13T15:53:07.779Z,11.53
2018-12-13T15:55:36.014Z,10.17
2018-12-13T15:58:04.322Z,9.47
2018-12-13T16:00:32.631Z,8.73
2018-12-13T16:03:00.869Z,8.53
2018-12-13T16:05:29.150Z,9.67
2018-12-13T16:07:57.739Z,11.07
2018-12-13T16:10:26.026Z,10.00
2018-12-13T16:12:54.253Z,9.93
2018-12-13T16:15:23.016Z,8.13
2018-12-13T16:17:51.227Z,11.77
2018-12-13T16:20:19.473Z,7.03
2018-12-13T16:22:47.773Z,8.87
2018-12-13T16:25:15.982Z,7.57
2018-12-13T16:27:44.169Z,8.83
2018-12-13T16:30:12.500Z,14.33
2018-12-13T16:32:40.753Z,13.17
2018-12-13T16:35:09.022Z,18.27
2018-12-13T16:37:37.251Z,20.57
2018-12-13T16:40:10.315Z,14.27
2018-12-13T16:42:36.109Z,14.03
2018-12-13T16:45:05.016Z,14.63
2018-12-13T16:47:33.410Z,19.07
2018-12-13T16:50:02.136Z,14.47
2018-12-13T16:52:30.626Z,22.80
2018-12-13T16:54:58.898Z,20.60
2018-12-13T16:57:27.200Z,18.27
2018-12-13T16:59:56.537Z,10.97
2018-12-13T17:02:27.163Z,10.50
2018-12-13T17:04:55.529Z,9.03
2018-12-13T17:07:23.769Z,8.10
2018-12-13T17:09:52.073Z,11.47
2018-12-13T17:12:20.370Z,9.27
2018-12-13T17:14:48.720Z,13.87
2018-12-13T17:17:17.024Z,9.40
2018-12-13T17:19:45.285Z,9.87
2018-12-13T17:22:13.536Z,7.67
2018-12-13T17:24:41.760Z,8.60
2018-12-13T17:27:10.024Z,8.17
2018-12-13T17:29:38.278Z,8.37
2018-12-13T17:32:06.544Z,9.43
2018-12-13T17:34:34.901Z,8.87
2018-12-13T17:37:03.153Z,8.17
2018-12-13T17:39:31.516Z,7.80
2018-12-13T17:41:59.871Z,13.67
2018-12-13T17:44:28.159Z,12.20
2018-12-13T17:46:56.395Z,22.77
2018-12-13T17:49:24.870Z,18.47
2018-12-13T17:51:53.174Z,9.83
2018-12-13T17:54:21.497Z,13.43
2018-12-13T17:56:49.792Z,8.83
2018-12-13T17:59:18.037Z,9.70
2018-12-13T18:01:46.457Z,10.07
2018-12-13T18:04:14.739Z,9.47
2018-12-13T18:06:43.003Z,8.73
2018-12-13T18:09:11.256Z,9.20
2018-12-13T18:11:39.623Z,11.47
2018-12-13T18:14:07.993Z,13.00
2018-12-13T18:16:36.288Z,13.60
2018-12-13T18:19:05.441Z,11.63
2018-12-13T18:21:33.816Z,12.87
2018-12-13T18:24:02.096Z,14.90
2018-12-13T18:26:30.379Z,14.40
2018-12-13T18:28:58.626Z,12.00
2018-12-13T18:31:26.957Z,11.23
2018-12-13T18:33:55.284Z,13.30
2018-12-13T18:36:23.586Z,10.80
2018-12-13T18:38:51.870Z,10.67
2018-12-13T18:41:20.192Z,11.50
2018-12-13T18:43:48.673Z,14.37
2018-12-13T18:46:16.943Z,12.13
2018-12-13T18:48:45.287Z,11.10
2018-12-13T18:51:13.583Z,12.90
2018-12-13T18:53:41.900Z,12.40
2018-12-13T18:56:10.192Z,12.17
2018-12-13T18:58:38.474Z,10.47
2018-12-13T19:01:06.767Z,10.13
2018-12-13T19:03:35.561Z,10.17
2018-12-13T19:06:04.640Z,9.53
2018-12-13T19:08:33.615Z,17.87
2018-12-13T19:11:02.376Z,10.63
2018-12-13T19:13:30.961Z,9.57
2018-12-13T19:15:59.242Z,11.10
2018-12-13T19:18:27.542Z,10.20
2018-12-13T19:20:55.811Z,10.60
2018-12-13T19:23:24.096Z,11.77
2018-12-13T19:25:52.432Z,11.43
2018-12-13T19:28:20.798Z,15.53
2018-12-13T19:30:49.425Z,12.30
2018-12-13T19:33:17.884Z,11.50
2018-12-13T19:35:46.272Z,12.43
2018-12-13T19:38:14.656Z,11.90
2018-12-13T19:40:48.160Z,9.27
2018-12-13T19:43:13.319Z,9.97
2018-12-13T19:45:43.894Z,11.80
2018-12-13T19:48:12.271Z,9.93
2018-12-13T19:50:42.919Z,10.27
2018-12-13T19:53:13.438Z,12.17
2018-12-13T19:55:41.917Z,9.83
2018-12-13T19:58:10.535Z,12.20
2018-12-13T20:00:38.847Z,12.87
2018-12-13T20:03:07.428Z,14.13
2018-12-13T20:05:36.095Z,12.70
2018-12-13T20:08:04.373Z,13.70
2018-12-13T20:10:32.972Z,10.40
2018-12-13T20:13:01.694Z,8.47
2018-12-13T20:15:30.294Z,10.83
2018-12-13T20:17:58.619Z,14.30
2018-12-13T20:20:27.200Z,14.40
2018-12-13T20:22:55.539Z,12.03
2018-12-13T20:25:24.083Z,15.10
2018-12-13T20:27:52.392Z,12.77
2018-12-13T20:30:20.857Z,12.37
2018-12-13T20:32:49.194Z,18.20
2018-12-13T20:35:17.999Z,14.93
2018-12-13T20:37:46.472Z,12.27
2018-12-13T20:40:14.861Z,14.30
2018-12-13T20:42:43.285Z,11.80
2018-12-13T20:45:11.589Z,10.10
2018-12-13T20:47:39.987Z,10.83
2018-12-13T20:50:08.482Z,11.97
2018-12-13T20:52:36.952Z,11.27
2018-12-13T20:55:05.643Z,9.93
2018-12-13T20:57:34.041Z,10.70
2018-12-13T21:00:02.299Z,10.10
2018-12-13T21:02:30.681Z,12.37
2018-12-13T21:04:59.260Z,10.70
2018-12-13T21:07:34.147Z,11.47
2018-12-13T21:10:03.223Z,11.87
2018-12-13T21:12:31.618Z,12.60
2018-12-13T21:14:59.947Z,12.43
2018-12-13T21:17:28.218Z,12.50
2018-12-13T21:19:56.568Z,14.73
2018-12-13T21:22:25.166Z,12.33
2018-12-13T21:24:53.513Z,11.27
2018-12-13T21:27:21.795Z,11.80
2018-12-13T21:29:50.052Z,14.37
2018-12-13T21:32:18.431Z,10.60
2018-12-13T21:34:46.703Z,11.30
2018-12-13T21:37:15.175Z,9.70
2018-12-13T21:39:43.489Z,13.33
2018-12-13T21:42:13.315Z,11.20
2018-12-13T21:44:41.723Z,13.03
2018-12-13T21:47:10.098Z,12.13
2018-12-13T21:49:38.534Z,13.43
2018-12-13T21:52:06.820Z,13.27
2018-12-13T21:54:36.213Z,13.27
2018-12-13T21:57:04.802Z,11.70
2018-12-13T21:59:33.140Z,13.27
2018-12-13T22:02:04.209Z,15.70
2018-12-13T22:04:32.645Z,15.57
2018-12-13T22:07:00.955Z,18.90
2018-12-13T22:09:29.396Z,17.30
2018-12-13T22:11:57.710Z,20.53
2018-12-13T22:14:26.033Z,17.10
2018-12-13T22:16:54.320Z,16.43
2018-12-13T22:19:22.700Z,15.77
2018-12-13T22:21:50.954Z,15.63
2018-12-13T22:24:19.217Z,19.83
2018-12-13T22:26:47.499Z,21.07
2018-12-13T22:29:15.781Z,28.30
2018-12-13T22:31:44.758Z,27.57
2018-12-13T22:34:13.473Z,27.57
2018-12-13T22:36:41.820Z,36.83
2018-12-13T22:39:10.084Z,36.20
2018-12-13T22:41:38.477Z,29.47
2018-12-13T22:44:06.790Z,20.07
2018-12-13T22:46:35.019Z,16.40
2018-12-13T22:49:03.347Z,16.13
2018-12-13T22:51:31.847Z,15.60
2018-12-13T22:54:00.073Z,15.70
2018-12-13T22:56:28.539Z,15.10
2018-12-13T22:58:56.817Z,12.53
2018-12-13T23:01:25.174Z,10.53
2018-12-13T23:03:53.452Z,12.50
2018-12-13T23:06:21.759Z,13.57
2018-12-13T23:08:50.006Z,10.67
2018-12-13T23:11:18.204Z,12.57
2018-12-13T23:13:46.531Z,10.87
2018-12-13T23:16:14.780Z,9.30
2018-12-13T23:18:43.032Z,10.57
2018-12-13T23:21:11.280Z,12.67
2018-12-13T23:23:39.634Z,13.83
2018-12-13T23:26:07.868Z,12.10
2018-12-13T23:28:36.183Z,11.00
2018-12-13T23:31:04.561Z,14.40
2018-12-13T23:33:32.803Z,16.90
2018-12-13T23:36:01.171Z,11.50
2018-12-13T23:38:29.491Z,13.57
2018-12-13T23:40:57.786Z,13.57
2018-12-13T23:43:26.059Z,14.70
2018-12-13T23:45:54.363Z,14.77
2018-12-13T23:48:22.651Z,14.73
2018-12-13T23:50:50.908Z,13.93
2018-12-13T23:53:19.138Z,11.27
2018-12-13T23:55:47.408Z,12.30
2018-12-13T23:58:15.715Z,13.00
